createdAt,value
2019-02-06T00:03:06.382Z,1030.24
2019-02-06T00:08:07.007Z,1030.23
2019-02-06T00:13:06.112Z,1030.23
2019-02-06T00:18:06.885Z,1030.22
2019-02-06T00:23:06.319Z,1030.26
2019-02-06T00:28:06.822Z,1030.35
2019-02-06T00:32:07.091Z,1030.3
2019-02-06T00:37:07.612Z,1030.39
2019-02-06T00:42:08.509Z,1030.42
2019-02-06T00:47:07.848Z,1030.33
2019-02-06T00:52:07.400Z,1030.35
2019-02-06T00:57:08.034Z,1030.32
2019-02-06T01:02:06.706Z,1030.35
2019-02-06T01:07:06.183Z,1030.35
2019-02-06T01:11:07.300Z,1030.25
2019-02-06T01:16:07.723Z,1030.3
2019-02-06T01:17:06.766Z,1030.3
2019-02-06T01:21:07.484Z,1030.29
2019-02-06T01:26:07.025Z,1030.27
2019-02-06T01:31:07.388Z,1030.27
2019-02-06T01:36:08.106Z,1030.25
2019-02-06T01:41:07.239Z,1030.19
2019-02-06T01:46:07.799Z,1030.21
2019-02-06T01:50:07.018Z,1030.24
2019-02-06T01:56:07.259Z,1030.24
2019-02-06T02:00:09.444Z,1030.18
2019-02-06T02:05:11.686Z,1030.15
2019-02-06T02:10:09.094Z,1030.06
2019-02-06T02:15:09.441Z,1030.04
2019-02-06T02:20:07.300Z,1030.05
2019-02-06T02:25:07.784Z,1030.06
2019-02-06T02:30:08.478Z,1030.04
2019-02-06T02:34:06.100Z,1030.02
2019-02-06T02:35:07.181Z,1030.02
2019-02-06T02:39:07.316Z,1029.94
2019-02-06T02:44:06.929Z,1029.97
2019-02-06T02:49:06.262Z,1029.91
2019-02-06T02:54:06.741Z,1029.84
2019-02-06T02:59:06.182Z,1029.87
2019-02-06T03:04:07.069Z,1029.81
2019-02-06T03:09:07.823Z,1029.75
2019-02-06T03:13:06.784Z,1029.79
2019-02-06T03:18:06.049Z,1029.86
2019-02-06T03:23:06.599Z,1029.8
2019-02-06T03:28:05.989Z,1029.73
2019-02-06T03:33:07.547Z,1029.65
2019-02-06T03:38:06.077Z,1029.66
2019-02-06T03:43:07.072Z,1029.63
2019-02-06T03:48:06.383Z,1029.66
2019-02-06T03:52:07.474Z,1029.54
2019-02-06T03:57:07.082Z,1029.54
2019-02-06T03:58:06.155Z,1029.54
2019-02-06T04:02:07.501Z,1029.47
2019-02-06T04:07:06.830Z,1029.52
2019-02-06T04:12:07.159Z,1029.52
2019-02-06T04:17:06.328Z,1029.57
2019-02-06T04:22:07.910Z,1029.56
2019-02-06T04:27:06.299Z,1029.53
2019-02-06T04:31:08.260Z,1029.49
2019-02-06T04:37:07.003Z,1029.46
2019-02-06T04:41:07.260Z,1029.35
2019-02-06T04:46:06.817Z,1029.33
2019-02-06T04:51:07.132Z,1029.29
2019-02-06T04:56:06.632Z,1029.35
2019-02-06T05:01:08.333Z,1029.46
2019-02-06T05:06:06.844Z,1029.38
2019-02-06T05:10:07.640Z,1029.37
2019-02-06T05:15:08.363Z,1029.36
2019-02-06T05:16:06.103Z,1029.36
2019-02-06T05:20:07.228Z,1029.42
2019-02-06T05:25:09.546Z,1029.44
2019-02-06T05:30:08.988Z,1029.47
2019-02-06T05:35:06.945Z,1029.44
2019-02-06T05:40:07.041Z,1029.54
2019-02-06T05:45:08.313Z,1029.52
2019-02-06T05:49:07.871Z,1029.42
2019-02-06T05:54:08.719Z,1029.34
2019-02-06T05:55:06.022Z,1029.34
2019-02-06T05:59:07.755Z,1029.38
2019-02-06T06:04:06.674Z,1029.3
2019-02-06T06:09:06.603Z,1029.26
2019-02-06T06:14:06.326Z,1029.37
2019-02-06T06:19:06.936Z,1029.35
2019-02-06T06:24:10.899Z,1029.3
2019-02-06T06:28:06.890Z,1029.33
2019-02-06T06:34:07.690Z,1029.37
2019-02-06T06:38:07.441Z,1029.35
2019-02-06T06:43:07.613Z,1029.23
2019-02-06T06:48:07.190Z,1029.22
2019-02-06T06:53:07.701Z,1029.25
2019-02-06T06:58:07.135Z,1029.23
2019-02-06T07:03:08.003Z,1029.3
2019-02-06T07:08:14.345Z,1029.2
2019-02-06T07:12:07.646Z,1029.12
2019-02-06T07:17:07.927Z,1029.09
2019-02-06T07:22:07.985Z,1029.16
2019-02-06T07:27:07.522Z,1029.06
2019-02-06T07:32:07.394Z,1029
2019-02-06T07:37:07.940Z,1028.97
2019-02-06T07:42:07.980Z,1029.03
2019-02-06T07:47:07.598Z,1028.96
2019-02-06T07:52:07.197Z,1028.95
2019-02-06T07:56:07.335Z,1028.86
2019-02-06T07:57:07.469Z,1028.86
2019-02-06T08:01:07.751Z,1028.92
2019-02-06T08:06:07.304Z,1028.87
2019-02-06T08:11:07.314Z,1028.93
2019-02-06T08:16:08.540Z,1028.87
2019-02-06T08:21:07.199Z,1028.84
2019-02-06T08:26:08.567Z,1028.9
2019-02-06T08:31:07.543Z,1028.81
2019-02-06T08:36:06.969Z,1028.77
2019-02-06T08:40:06.173Z,1028.76
2019-02-06T08:41:08.175Z,1028.76
2019-02-06T08:45:07.720Z,1028.83
2019-02-06T08:50:06.244Z,1028.76
2019-02-06T08:55:06.709Z,1028.78
2019-02-06T09:00:09.502Z,1028.78
2019-02-06T09:05:08.809Z,1028.78
2019-02-06T09:10:07.518Z,1028.75
2019-02-06T09:15:09.103Z,1028.67
2019-02-06T09:20:07.484Z,1028.66
2019-02-06T09:24:06.380Z,1028.68
2019-02-06T09:29:06.933Z,1028.71
2019-02-06T09:34:09.559Z,1028.53
2019-02-06T09:39:11.433Z,1028.45
2019-02-06T09:44:06.595Z,1028.39
2019-02-06T09:49:07.536Z,1028.32
2019-02-06T09:54:07.142Z,1028.16
2019-02-06T09:59:07.591Z,1028.11
2019-02-06T10:03:08.314Z,1028.11
2019-02-06T10:09:08.094Z,1028.05
2019-02-06T10:13:07.738Z,1028.09
2019-02-06T10:18:07.196Z,1028.03
2019-02-06T10:23:07.781Z,1028.02
2019-02-06T10:28:07.295Z,1028.02
2019-02-06T10:33:07.543Z,1027.9
2019-02-06T10:38:07.183Z,1027.88
2019-02-06T10:43:08.098Z,1027.87
2019-02-06T10:47:06.307Z,1027.75
2019-02-06T10:52:06.869Z,1027.67
2019-02-06T10:57:06.394Z,1027.64
2019-02-06T11:02:07.993Z,1027.51
2019-02-06T11:07:09.380Z,1027.51
2019-02-06T11:12:07.546Z,1027.44
2019-02-06T11:17:07.732Z,1027.42
2019-02-06T11:22:07.283Z,1027.24
2019-02-06T11:27:07.711Z,1027.17
2019-02-06T11:31:08.227Z,1026.96
2019-02-06T11:32:07.437Z,1026.96
2019-02-06T11:36:07.785Z,1026.98
2019-02-06T11:41:07.235Z,1026.9
2019-02-06T11:46:10.109Z,1026.8
2019-02-06T11:51:07.619Z,1026.68
2019-02-06T11:56:07.213Z,1026.66
2019-02-06T12:01:07.092Z,1026.52
2019-02-06T12:06:07.561Z,1026.43
2019-02-06T12:10:11.142Z,1026.31
2019-02-06T12:15:09.338Z,1026.18
2019-02-06T12:16:07.088Z,1026.18
2019-02-06T12:20:07.744Z,1026.23
2019-02-06T12:25:07.257Z,1026.11
2019-02-06T12:30:09.234Z,1026.11
2019-02-06T12:35:07.387Z,1026.03
2019-02-06T12:40:07.179Z,1025.92
2019-02-06T12:45:09.135Z,1025.79
2019-02-06T12:50:07.722Z,1025.75
2019-02-06T12:55:07.271Z,1025.63
2019-02-06T12:59:06.898Z,1025.49
2019-02-06T13:05:08.264Z,1025.43
2019-02-06T13:09:08.460Z,1025.35
2019-02-06T13:14:07.944Z,1025.31
2019-02-06T13:19:07.203Z,1025.19
2019-02-06T13:24:06.850Z,1025.09
2019-02-06T13:29:06.311Z,1025.1
2019-02-06T13:34:06.466Z,1025.08
2019-02-06T13:39:07.832Z,1024.94
2019-02-06T13:43:08.006Z,1024.83
2019-02-06T13:49:06.174Z,1024.89
2019-02-06T13:53:07.992Z,1024.89
2019-02-06T13:58:18.329Z,1024.77
2019-02-06T14:03:07.173Z,1024.67
2019-02-06T14:08:06.897Z,1024.7
2019-02-06T14:13:07.091Z,1024.62
2019-02-06T14:18:06.036Z,1024.62
2019-02-06T14:23:06.710Z,1024.74
2019-02-06T14:27:07.690Z,1024.76
2019-02-06T14:28:06.819Z,1024.76
2019-02-06T14:32:07.153Z,1024.64
2019-02-06T14:37:07.789Z,1024.64
2019-02-06T14:42:07.980Z,1024.59
2019-02-06T14:47:07.870Z,1024.54
2019-02-06T14:52:07.707Z,1024.46
2019-02-06T14:57:07.229Z,1024.52
2019-02-06T15:02:06.910Z,1024.53
2019-02-06T15:07:06.891Z,1024.48
2019-02-06T15:11:07.293Z,1024.4
2019-02-06T15:16:07.959Z,1024.37
2019-02-06T15:21:06.481Z,1024.45
2019-02-06T15:26:06.225Z,1024.37
2019-02-06T15:31:06.676Z,1024.27
2019-02-06T15:36:06.498Z,1024.22
2019-02-06T15:41:06.764Z,1024.14
2019-02-06T15:45:09.894Z,1024.11
2019-02-06T15:50:07.488Z,1024.17
2019-02-06T15:55:07.057Z,1024.02
2019-02-06T16:00:08.599Z,1023.98
2019-02-06T16:05:06.223Z,1023.83
2019-02-06T16:10:07.225Z,1023.85
2019-02-06T16:15:08.394Z,1023.83
2019-02-06T16:20:10.129Z,1023.84
2019-02-06T16:25:07.670Z,1023.79
2019-02-06T16:30:08.027Z,1023.82
2019-02-06T16:34:07.384Z,1023.77
2019-02-06T16:39:07.484Z,1023.73
2019-02-06T16:44:06.747Z,1023.7
2019-02-06T16:49:06.049Z,1023.73
2019-02-06T16:54:06.762Z,1023.72
2019-02-06T16:59:06.189Z,1023.71
2019-02-06T17:04:08.006Z,1023.78
2019-02-06T17:09:08.139Z,1023.83
2019-02-06T17:14:07.618Z,1023.74
2019-02-06T17:18:06.061Z,1023.78
2019-02-06T17:23:07.741Z,1023.73
2019-02-06T17:28:07.601Z,1023.74
2019-02-06T17:33:06.966Z,1023.49
2019-02-06T17:51:06.175Z,1023.14
2019-02-06T17:57:07.520Z,1023.22
2019-02-06T18:04:06.222Z,1023.18
2019-02-06T18:11:06.032Z,1023.39
2019-02-06T18:16:07.843Z,1023.41
2019-02-06T18:21:07.535Z,1023.45
2019-02-06T18:25:06.165Z,1023.34
2019-02-06T18:30:07.729Z,1023.34
2019-02-06T18:35:06.359Z,1023.27
2019-02-06T18:40:06.544Z,1023.19
2019-02-06T18:45:07.404Z,1023.24
2019-02-06T18:50:06.536Z,1023.18
2019-02-06T18:55:06.216Z,1023.18
2019-02-06T19:00:10.528Z,1023.14
2019-02-06T19:05:07.734Z,1023.13
2019-02-06T19:09:06.878Z,1023.01
2019-02-06T19:14:06.615Z,1022.98
2019-02-06T19:19:06.337Z,1022.91
2019-02-06T19:24:06.902Z,1022.86
2019-02-06T19:29:06.648Z,1022.97
2019-02-06T19:34:06.570Z,1022.83
2019-02-06T19:39:06.757Z,1022.81
2019-02-06T19:43:08.828Z,1022.76
2019-02-06T19:44:06.297Z,1022.76
2019-02-06T19:48:22.715Z,1022.63
2019-02-06T19:53:07.653Z,1022.63
2019-02-06T19:58:07.314Z,1022.56
2019-02-06T20:03:08.018Z,1022.48
2019-02-06T20:08:06.742Z,1022.57
2019-02-06T20:13:10.794Z,1022.49
2019-02-06T20:18:06.048Z,1022.52
2019-02-06T20:23:06.705Z,1022.45
2019-02-06T20:28:06.144Z,1022.51
2019-02-06T20:32:07.822Z,1022.5
2019-02-06T20:37:07.570Z,1022.43
2019-02-06T20:42:07.546Z,1022.26
2019-02-06T20:47:07.469Z,1022.25
2019-02-06T20:52:07.101Z,1022.17
2019-02-06T20:57:16.605Z,1022.27
2019-02-06T21:02:06.387Z,1022.27
2019-02-06T21:07:06.865Z,1022.23
2019-02-06T21:11:07.118Z,1022.18
2019-02-06T21:16:07.739Z,1022.24
2019-02-06T21:21:07.285Z,1022.22
2019-02-06T21:26:07.843Z,1022.1
2019-02-06T21:31:07.947Z,1022.24
2019-02-06T21:36:07.487Z,1022.22
2019-02-06T21:41:07.563Z,1022.2
2019-02-06T21:46:07.510Z,1022.16
2019-02-06T21:50:07.278Z,1022.13
2019-02-06T21:55:08.643Z,1022.13
2019-02-06T22:00:08.068Z,1021.97
2019-02-06T22:05:06.905Z,1021.85
2019-02-06T22:10:06.903Z,1021.67
2019-02-06T22:15:07.992Z,1021.63
2019-02-06T22:20:06.313Z,1021.64
2019-02-06T22:24:08.713Z,1021.54
2019-02-06T22:29:07.940Z,1021.49
2019-02-06T22:34:07.775Z,1021.49
2019-02-06T22:39:07.800Z,1021.45
2019-02-06T22:44:08.070Z,1021.47
2019-02-06T22:49:07.399Z,1021.42
2019-02-06T22:54:07.080Z,1021.33
2019-02-06T22:59:07.634Z,1021.22
2019-02-06T23:03:07.832Z,1021.3
2019-02-06T23:04:06.925Z,1021.3
2019-02-06T23:09:06.787Z,1021.35
2019-02-06T23:13:08.553Z,1021.29
2019-02-06T23:18:07.249Z,1021.24
2019-02-06T23:23:07.672Z,1021.19
2019-02-06T23:28:07.285Z,1021.17
2019-02-06T23:33:07.606Z,1021.04
2019-02-06T23:38:07.101Z,1020.95
2019-02-06T23:43:08.097Z,1020.99
2019-02-06T23:48:07.691Z,1020.94
2019-02-06T23:53:07.259Z,1020.89
2019-02-06T23:57:07.216Z,1020.87
